Terminal Aerodrome Forecast
Issued by NWS Melbourne, FL

Home | Current Version | Previous Version | Text Only | Print | Product List | Glossary On
Versions: 1 2 3 4 5 6 7 8 9 10 11 12 13 14 15 16 17 18
000
FTUS42 KMLB 060544
TAFMLB
TAF
KMLB 060544Z 0606/0706 27005KT P6SM FEW250
     FM061000 31006KT P6SM SCT007 OVC015
     FM061200 36010KT P6SM OVC007
     FM062200 35016G22KT P6SM OVC007=

USA.gov is the U.S. government's official web portal to all federal, state and local government web resources and services.